createdAt,value
2022-09-07T00:01:07.438Z,2.67
2022-09-07T00:03:36.315Z,2.67
2022-09-07T00:06:08.364Z,2.65
2022-09-07T00:08:36.996Z,2.40
2022-09-07T00:11:06.843Z,2.55
2022-09-07T00:13:38.821Z,2.50
2022-09-07T00:16:08.296Z,2.45
2022-09-07T00:18:36.414Z,2.50
2022-09-07T00:21:06.554Z,2.42
2022-09-07T00:23:36.125Z,2.80
2022-09-07T00:26:05.896Z,2.83
2022-09-07T00:28:36.277Z,3.00
2022-09-07T00:31:04.736Z,2.75
2022-09-07T00:33:32.908Z,2.75
2022-09-07T00:36:00.995Z,2.53
2022-09-07T00:38:29.370Z,2.67
2022-09-07T00:40:57.454Z,2.78
2022-09-07T00:43:40.657Z,2.90
2022-09-07T00:46:14.021Z,2.97
2022-09-07T00:48:47.372Z,2.80
2022-09-07T00:51:22.235Z,2.65
2022-09-07T00:53:55.566Z,2.80
2022-09-07T00:56:27.526Z,2.55
2022-09-07T00:58:58.789Z,2.70
2022-09-07T01:01:27.421Z,2.90
2022-09-07T01:03:58.522Z,2.85
2022-09-07T01:06:30.138Z,2.28
2022-09-07T01:09:02.601Z,2.80
2022-09-07T01:11:32.844Z,2.47
2022-09-07T01:14:03.998Z,2.80
2022-09-07T01:16:54.825Z,2.42
2022-09-07T01:19:58.641Z,2.70
2022-09-07T01:22:58.677Z,2.50
2022-09-07T01:25:42.645Z,2.70
2022-09-07T01:28:20.382Z,2.40
2022-09-07T01:30:56.301Z,2.30
2022-09-07T01:33:39.891Z,2.28
2022-09-07T01:36:19.984Z,2.60
2022-09-07T01:38:52.561Z,2.78
2022-09-07T01:41:26.388Z,2.90
2022-09-07T01:44:03.986Z,2.95
2022-09-07T01:46:36.667Z,2.80
2022-09-07T01:49:11.968Z,3.00
2022-09-07T01:51:46.690Z,2.55
2022-09-07T01:54:22.419Z,2.70
2022-09-07T01:56:54.479Z,2.90
2022-09-07T01:59:30.236Z,3.42
2022-09-07T02:02:04.491Z,2.60
2022-09-07T02:04:37.144Z,3.20
2022-09-07T02:07:11.350Z,2.45
2022-09-07T02:09:43.754Z,3.10
2022-09-07T02:12:19.817Z,2.50
2022-09-07T02:14:54.736Z,2.75
2022-09-07T02:17:28.334Z,3.33
2022-09-07T02:20:01.658Z,2.40
2022-09-07T02:22:34.153Z,2.70
2022-09-07T02:25:05.930Z,3.25
2022-09-07T02:27:40.770Z,2.55
2022-09-07T02:30:11.420Z,2.85
2022-09-07T02:32:39.619Z,2.50
2022-09-07T02:35:08.509Z,2.58
2022-09-07T02:37:37.744Z,2.60
2022-09-07T02:40:07.124Z,3.08
2022-09-07T02:42:37.524Z,2.80
2022-09-07T02:45:09.497Z,2.88
2022-09-07T02:47:52.092Z,3.20
2022-09-07T02:50:38.638Z,2.90
2022-09-07T02:53:31.765Z,2.70
2022-09-07T02:56:12.443Z,2.65
2022-09-07T02:58:50.487Z,3.10
2022-09-07T03:01:33.256Z,2.90
2022-09-07T03:04:09.029Z,2.72
2022-09-07T03:06:42.070Z,3.00
2022-09-07T03:09:16.215Z,3.10
2022-09-07T03:11:44.374Z,2.60
2022-09-07T03:14:13.950Z,3.65
2022-09-07T03:16:42.002Z,3.13
2022-09-07T03:19:11.485Z,3.17
2022-09-07T03:21:39.567Z,3.25
2022-09-07T03:24:08.085Z,3.40
2022-09-07T03:26:39.683Z,3.17
2022-09-07T03:29:07.999Z,3.10
2022-09-07T03:31:36.729Z,2.83
2022-09-07T03:34:06.023Z,2.95
2022-09-07T03:36:36.186Z,2.85
2022-09-07T03:39:04.847Z,3.03
2022-09-07T03:41:32.934Z,3.20
2022-09-07T03:44:04.153Z,2.92
2022-09-07T03:46:32.416Z,3.40
2022-09-07T03:49:00.574Z,3.17
2022-09-07T03:51:28.700Z,3.38
2022-09-07T03:54:00.158Z,3.03
2022-09-07T03:56:28.258Z,2.80
2022-09-07T03:58:56.906Z,3.30
2022-09-07T04:01:27.320Z,3.35
2022-09-07T04:04:02.103Z,3.30
2022-09-07T04:06:31.409Z,3.42
2022-09-07T04:09:03.192Z,3.20
2022-09-07T04:11:31.723Z,3.35
2022-09-07T04:13:59.880Z,3.20
2022-09-07T04:16:29.246Z,3.40
2022-09-07T04:18:59.394Z,3.47
2022-09-07T04:21:29.468Z,3.30
2022-09-07T04:23:57.542Z,3.70
2022-09-07T04:26:29.042Z,3.45
2022-09-07T04:28:57.366Z,3.33
2022-09-07T04:31:26.669Z,3.55
2022-09-07T04:33:55.787Z,3.28
2022-09-07T04:36:24.905Z,3.17
2022-09-07T04:38:56.797Z,3.20
2022-09-07T04:41:27.023Z,3.67
2022-09-07T04:43:57.321Z,2.75
2022-09-07T04:46:27.463Z,3.13
2022-09-07T04:48:57.715Z,3.17
2022-09-07T04:51:29.682Z,3.08
2022-09-07T04:53:59.197Z,2.67
2022-09-07T04:56:28.677Z,2.97
2022-09-07T04:58:56.962Z,2.70
2022-09-07T05:01:26.481Z,2.95
2022-09-07T05:03:54.867Z,2.90
2022-09-07T05:06:24.180Z,2.90
2022-09-07T05:08:54.073Z,2.88
2022-09-07T05:11:28.779Z,3.00
2022-09-07T05:13:59.997Z,3.45
2022-09-07T05:16:29.173Z,3.20
2022-09-07T05:18:59.989Z,2.63
2022-09-07T05:21:29.313Z,2.53
2022-09-07T05:23:59.123Z,2.75
2022-09-07T05:26:28.771Z,2.67
2022-09-07T05:31:50.685Z,2.50
2022-09-07T05:34:33.978Z,3.00
2022-09-07T05:37:02.972Z,2.42
2022-09-07T05:39:31.507Z,2.63
2022-09-07T05:41:59.615Z,2.10
2022-09-07T05:44:46.362Z,2.00
2022-09-07T05:47:14.807Z,2.53
2022-09-07T05:49:42.899Z,2.30
2022-09-07T05:52:11.405Z,2.40
2022-09-07T05:54:39.486Z,2.28
2022-09-07T05:57:08.076Z,3.00
2022-09-07T05:59:37.515Z,3.10
2022-09-07T06:02:06.279Z,2.95
2022-09-07T06:04:34.421Z,3.35
2022-09-07T06:07:21.214Z,2.88
2022-09-07T06:12:38.495Z,2.80
2022-09-07T06:15:09.435Z,2.80
2022-09-07T06:17:37.479Z,3.05
2022-09-07T06:20:07.502Z,2.65
2022-09-07T06:22:36.733Z,2.75
2022-09-07T06:25:05.274Z,2.85
2022-09-07T06:27:33.371Z,3.10
2022-09-07T06:30:01.430Z,2.80
2022-09-07T06:32:46.395Z,2.67
2022-09-07T06:35:15.086Z,2.30
2022-09-07T06:37:43.408Z,2.50
2022-09-07T06:40:12.586Z,2.50
2022-09-07T06:42:41.032Z,2.20
2022-09-07T06:45:11.416Z,2.30
2022-09-07T06:47:41.419Z,2.60
2022-09-07T06:50:11.400Z,2.17
2022-09-07T06:55:28.963Z,2.45
2022-09-07T06:57:57.123Z,2.40
2022-09-07T07:00:25.300Z,2.72
2022-09-07T07:02:54.897Z,2.47
2022-09-07T07:05:22.986Z,2.58
2022-09-07T07:07:51.046Z,2.42
2022-09-07T07:10:24.309Z,2.40
2022-09-07T07:12:57.402Z,2.30
2022-09-07T07:17:59.121Z,2.80
2022-09-07T07:20:30.787Z,2.70
2022-09-07T07:22:58.888Z,3.22
2022-09-07T07:25:26.984Z,2.60
2022-09-07T07:27:55.308Z,2.40
2022-09-07T07:30:23.814Z,2.55
2022-09-07T07:32:52.001Z,2.50
2022-09-07T07:35:21.474Z,2.60
2022-09-07T07:37:49.706Z,2.42
2022-09-07T07:40:19.951Z,2.60
2022-09-07T07:42:51.535Z,2.35
2022-09-07T07:48:07.769Z,2.33
2022-09-07T07:50:37.187Z,2.30
2022-09-07T07:55:53.699Z,2.70
2022-09-07T07:58:22.609Z,2.38
2022-09-07T08:00:54.585Z,2.28
2022-09-07T08:03:23.739Z,2.40
2022-09-07T08:05:53.399Z,2.25
2022-09-07T08:08:21.644Z,2.08
2022-09-07T08:10:49.702Z,2.35
2022-09-07T08:13:19.320Z,2.30
2022-09-07T08:15:47.476Z,2.30
2022-09-07T08:18:17.854Z,2.30
2022-09-07T08:20:46.107Z,2.42
2022-09-07T08:23:15.826Z,2.20
2022-09-07T08:25:51.485Z,2.60
2022-09-07T08:28:19.666Z,2.55
2022-09-07T08:30:47.665Z,2.22
2022-09-07T08:33:15.835Z,2.30
2022-09-07T08:35:43.848Z,2.60
2022-09-07T08:38:12.084Z,2.60
2022-09-07T08:40:41.555Z,2.45
2022-09-07T08:43:19.219Z,2.42
2022-09-07T08:45:50.047Z,2.63
2022-09-07T08:48:31.298Z,2.38
2022-09-07T08:51:05.002Z,2.67
2022-09-07T08:53:33.438Z,2.30
2022-09-07T08:56:07.104Z,2.55
2022-09-07T08:58:49.052Z,2.30
2022-09-07T09:01:35.696Z,2.30
2022-09-07T09:04:22.371Z,2.53
2022-09-07T09:07:05.228Z,2.45
2022-09-07T09:09:48.749Z,2.50
2022-09-07T09:12:29.135Z,2.70
2022-09-07T09:15:11.091Z,2.70
2022-09-07T09:17:45.498Z,2.88
2022-09-07T09:20:24.525Z,2.88
2022-09-07T09:22:53.327Z,2.30
2022-09-07T09:25:23.398Z,2.30
2022-09-07T09:27:52.742Z,2.45
2022-09-07T09:30:23.573Z,2.45
2022-09-07T09:32:53.560Z,2.55
2022-09-07T09:35:30.013Z,2.60
2022-09-07T09:37:58.405Z,3.10
2022-09-07T09:40:28.688Z,2.58
2022-09-07T09:43:04.128Z,2.40
2022-09-07T09:48:32.635Z,2.60
2022-09-07T09:53:58.723Z,2.40
2022-09-07T09:56:38.681Z,2.50
2022-09-07T10:05:30.153Z,2.30
2022-09-07T10:07:59.053Z,2.42
2022-09-07T10:10:28.363Z,2.80
2022-09-07T10:12:56.955Z,2.63
2022-09-07T10:15:40.067Z,2.47
2022-09-07T10:18:18.720Z,2.25
2022-09-07T10:20:46.765Z,2.20
2022-09-07T10:23:22.499Z,2.60
2022-09-07T10:25:50.778Z,2.28
2022-09-07T10:28:21.506Z,2.50
2022-09-07T10:31:12.323Z,2.50
2022-09-07T10:36:44.205Z,2.35
2022-09-07T10:39:17.263Z,2.10
2022-09-07T10:41:54.044Z,2.15
2022-09-07T10:44:34.481Z,2.10
2022-09-07T10:47:16.680Z,2.65
2022-09-07T10:52:50.620Z,2.00
2022-09-07T10:55:26.429Z,2.05
2022-09-07T10:58:02.952Z,1.92
2022-09-07T11:00:39.462Z,2.22
2022-09-07T11:03:26.297Z,2.33
2022-09-07T11:06:07.810Z,2.30
2022-09-07T11:14:36.286Z,2.20
2022-09-07T11:17:10.027Z,2.22
2022-09-07T11:19:45.942Z,2.53
2022-09-07T11:22:23.830Z,2.10
2022-09-07T11:30:22.426Z,2.17
2022-09-07T11:32:59.367Z,2.25
2022-09-07T11:35:37.799Z,2.20
2022-09-07T11:38:23.658Z,2.20
2022-09-07T11:41:00.798Z,2.22
2022-09-07T11:43:32.572Z,2.03
2022-09-07T11:46:05.490Z,2.40
2022-09-07T11:48:39.447Z,2.00
2022-09-07T11:51:14.699Z,2.08
2022-09-07T11:53:47.899Z,2.28
2022-09-07T11:59:01.413Z,2.05
2022-09-07T12:01:41.132Z,2.10
2022-09-07T12:04:29.750Z,2.17
2022-09-07T12:07:37.530Z,2.47
2022-09-07T12:10:41.979Z,2.20
2022-09-07T12:13:33.400Z,2.33
2022-09-07T12:16:07.274Z,2.28
2022-09-07T12:19:01.690Z,2.72
2022-09-07T12:21:33.330Z,2.28
2022-09-07T12:24:02.806Z,2.42
2022-09-07T12:26:52.986Z,2.45
2022-09-07T12:29:24.157Z,2.10
2022-09-07T12:32:52.630Z,2.15
2022-09-07T12:34:52.489Z,2.10
2022-09-07T12:37:41.892Z,2.38
2022-09-07T12:41:01.343Z,2.50
2022-09-07T12:43:52.953Z,2.40
2022-09-07T12:46:46.737Z,2.60
2022-09-07T12:49:49.858Z,2.50
2022-09-07T12:52:43.334Z,2.60
2022-09-07T12:55:28.397Z,2.70
2022-09-07T12:58:14.180Z,2.63
2022-09-07T13:01:00.661Z,2.70
2022-09-07T13:03:57.429Z,2.85
2022-09-07T13:09:34.077Z,2.70
2022-09-07T13:12:07.205Z,2.60
2022-09-07T13:14:39.643Z,2.70
2022-09-07T13:17:44.051Z,2.50
2022-09-07T13:20:30.392Z,2.60
2022-09-07T13:23:10.512Z,2.53
2022-09-07T13:25:50.593Z,2.72
2022-09-07T13:28:26.042Z,2.60
2022-09-07T13:31:07.090Z,2.40
2022-09-07T13:33:54.903Z,2.90
2022-09-07T13:36:40.178Z,2.70
2022-09-07T13:39:13.725Z,2.67
2022-09-07T13:41:47.371Z,2.72
2022-09-07T13:44:25.824Z,3.00
2022-09-07T13:47:28.904Z,2.70
2022-09-07T13:50:05.573Z,2.72
2022-09-07T13:52:47.932Z,2.78
2022-09-07T13:55:31.409Z,2.40
2022-09-07T13:58:11.948Z,2.10
2022-09-07T14:00:52.287Z,2.50
2022-09-07T14:03:20.574Z,2.55
2022-09-07T14:05:49.878Z,2.53
2022-09-07T14:08:26.615Z,2.60
2022-09-07T14:10:54.874Z,2.83
2022-09-07T14:13:22.799Z,2.95
2022-09-07T14:15:52.096Z,2.70
2022-09-07T14:18:24.435Z,2.95
2022-09-07T14:20:54.695Z,2.60
2022-09-07T14:23:28.170Z,2.95
2022-09-07T14:26:17.835Z,2.78
2022-09-07T14:28:48.089Z,2.58
2022-09-07T14:31:18.207Z,2.55
2022-09-07T14:33:50.708Z,2.90
2022-09-07T14:36:42.506Z,2.63
2022-09-07T14:39:10.234Z,2.72
2022-09-07T14:41:40.713Z,2.45
2022-09-07T14:44:28.150Z,2.83
2022-09-07T14:46:57.201Z,3.00
2022-09-07T14:49:26.732Z,2.80
2022-09-07T14:51:56.309Z,3.03
2022-09-07T14:54:28.741Z,2.85
2022-09-07T14:57:03.004Z,3.05
2022-09-07T14:59:41.331Z,2.95
2022-09-07T15:02:27.384Z,2.70
2022-09-07T15:05:18.902Z,2.72
2022-09-07T15:07:49.735Z,2.50
2022-09-07T15:10:28.440Z,2.55
2022-09-07T15:12:58.018Z,2.63
2022-09-07T15:15:29.153Z,2.42
2022-09-07T15:18:04.604Z,2.58
2022-09-07T15:20:41.028Z,3.03
2022-09-07T15:23:15.647Z,3.42
2022-09-07T15:25:50.491Z,2.58
2022-09-07T15:34:03.769Z,2.58
2022-09-07T15:36:32.365Z,3.00
2022-09-07T15:39:03.117Z,3.03
2022-09-07T15:41:31.579Z,2.75
2022-09-07T15:44:00.156Z,2.83
2022-09-07T15:46:28.339Z,3.45
2022-09-07T15:48:57.337Z,2.80
2022-09-07T15:54:17.081Z,3.30
2022-09-07T15:57:48.378Z,3.00
2022-09-07T15:59:35.389Z,2.80
2022-09-07T16:02:03.740Z,3.08
2022-09-07T16:04:32.047Z,2.90
2022-09-07T16:07:01.686Z,2.78
2022-09-07T16:09:31.160Z,2.75
2022-09-07T16:13:00.067Z,3.03
2022-09-07T16:14:47.126Z,2.70
2022-09-07T16:20:03.312Z,2.58
2022-09-07T16:25:21.305Z,3.08
2022-09-07T16:27:49.972Z,3.13
2022-09-07T16:30:18.099Z,2.90
2022-09-07T16:32:46.142Z,3.30
2022-09-07T16:35:14.167Z,3.50
2022-09-07T16:38:43.516Z,3.75
2022-09-07T16:40:31.651Z,3.60
2022-09-07T16:42:59.566Z,3.38
2022-09-07T16:48:15.374Z,3.92
2022-09-07T16:51:00.415Z,3.28
2022-09-07T16:53:29.767Z,3.22
2022-09-07T16:56:03.301Z,3.20
2022-09-07T16:58:36.769Z,3.50
2022-09-07T17:01:06.662Z,3.47
2022-09-07T17:03:35.671Z,3.60
2022-09-07T17:06:05.587Z,3.15
2022-09-07T17:08:34.502Z,3.70
2022-09-07T17:11:05.793Z,3.30
2022-09-07T17:13:35.133Z,3.30
2022-09-07T17:16:04.377Z,3.22
2022-09-07T17:21:21.055Z,3.53
2022-09-07T17:23:54.884Z,3.30
2022-09-07T17:26:27.365Z,3.25
2022-09-07T17:29:00.324Z,3.40
2022-09-07T17:34:19.736Z,3.42
2022-09-07T17:36:48.174Z,3.35
2022-09-07T17:39:18.082Z,3.42
2022-09-07T17:41:49.643Z,3.47
2022-09-07T17:44:17.594Z,3.10
2022-09-07T17:46:45.608Z,3.45
2022-09-07T17:49:16.491Z,3.58
2022-09-07T17:51:45.562Z,3.10
2022-09-07T17:54:16.721Z,3.45
2022-09-07T17:56:45.278Z,3.58
2022-09-07T18:02:03.026Z,3.30
2022-09-07T18:04:31.037Z,3.28
2022-09-07T18:06:59.064Z,3.50
2022-09-07T18:09:26.977Z,3.80
2022-09-07T18:11:54.936Z,3.42
2022-09-07T18:14:24.241Z,3.35
2022-09-07T18:16:52.426Z,3.30
2022-09-07T18:19:20.849Z,3.38
2022-09-07T18:21:50.615Z,3.50
2022-09-07T18:24:22.034Z,3.20
2022-09-07T18:26:52.319Z,3.35
2022-09-07T18:29:36.817Z,3.40
2022-09-07T18:32:09.893Z,3.33
2022-09-07T18:34:40.660Z,3.33
2022-09-07T18:37:09.188Z,3.45
2022-09-07T18:39:37.174Z,3.42
2022-09-07T18:42:05.478Z,3.42
2022-09-07T18:47:28.645Z,3.55
2022-09-07T18:49:58.170Z,3.40
2022-09-07T18:55:14.349Z,3.40
2022-09-07T18:57:42.465Z,3.70
2022-09-07T19:00:12.481Z,3.90
2022-09-07T19:02:41.998Z,3.58
2022-09-07T19:07:59.649Z,3.38
2022-09-07T19:10:27.705Z,4.18
2022-09-07T19:12:56.424Z,4.00
2022-09-07T19:15:24.343Z,4.18
2022-09-07T19:17:53.665Z,4.25
2022-09-07T19:20:21.590Z,3.53
2022-09-07T19:22:49.541Z,4.10
2022-09-07T19:25:19.415Z,4.45
2022-09-07T19:27:47.366Z,3.90
2022-09-07T19:30:15.664Z,4.22
2022-09-07T19:32:43.593Z,4.07
2022-09-07T19:35:12.873Z,4.30
2022-09-07T19:37:40.806Z,4.18
2022-09-07T19:40:15.839Z,4.30
2022-09-07T19:42:45.381Z,4.20
2022-09-07T19:45:15.127Z,4.45
2022-09-07T19:47:43.065Z,4.07
2022-09-07T19:50:12.617Z,4.05
2022-09-07T19:52:40.528Z,4.20
2022-09-07T19:55:09.767Z,4.60
2022-09-07T19:57:37.661Z,3.85
2022-09-07T20:00:06.463Z,4.53
2022-09-07T20:02:34.381Z,4.57
2022-09-07T20:05:02.309Z,4.55
2022-09-07T20:07:31.643Z,4.03
2022-09-07T20:09:59.557Z,4.55
2022-09-07T20:12:27.450Z,4.15
2022-09-07T20:14:55.362Z,4.53
2022-09-07T20:17:23.262Z,4.70
2022-09-07T20:19:51.686Z,4.35
2022-09-07T20:22:19.955Z,4.15
2022-09-07T20:24:49.248Z,4.30
2022-09-07T20:27:17.218Z,4.38
2022-09-07T20:29:45.129Z,4.68
2022-09-07T20:32:13.541Z,4.25
2022-09-07T20:34:41.465Z,4.97
2022-09-07T20:37:09.389Z,4.40
2022-09-07T20:39:39.518Z,4.43
2022-09-07T20:42:09.128Z,4.70
2022-09-07T20:44:37.079Z,4.78
2022-09-07T20:47:05.265Z,5.18
2022-09-07T20:49:33.206Z,4.43
2022-09-07T20:52:01.154Z,4.82
2022-09-07T20:54:29.085Z,4.75
2022-09-07T20:56:59.198Z,4.85
2022-09-07T20:59:31.365Z,4.55
2022-09-07T21:01:59.368Z,4.82
2022-09-07T21:04:27.617Z,4.78
2022-09-07T21:06:55.510Z,5.05
2022-09-07T21:09:23.493Z,4.93
2022-09-07T21:11:54.063Z,5.13
2022-09-07T21:14:25.034Z,4.75
2022-09-07T21:16:54.356Z,4.65
2022-09-07T21:19:22.491Z,4.90
2022-09-07T21:21:50.394Z,4.38
2022-09-07T21:24:20.459Z,4.65
2022-09-07T21:26:49.426Z,5.30
2022-09-07T21:29:19.586Z,5.10
2022-09-07T21:31:48.042Z,4.82
2022-09-07T21:34:17.866Z,5.00
2022-09-07T21:36:46.118Z,4.57
2022-09-07T21:39:14.884Z,4.75
2022-09-07T21:41:43.517Z,4.65
2022-09-07T21:44:13.791Z,5.32
2022-09-07T21:46:42.073Z,4.88
2022-09-07T21:49:10.316Z,5.15
2022-09-07T21:51:39.910Z,4.57
2022-09-07T21:54:08.033Z,5.70
2022-09-07T21:56:36.054Z,4.70
2022-09-07T21:59:04.761Z,4.97
2022-09-07T22:01:33.246Z,4.80
2022-09-07T22:04:03.325Z,4.93
2022-09-07T22:06:32.477Z,5.03
2022-09-07T22:09:02.789Z,4.93
2022-09-07T22:11:30.967Z,5.40
2022-09-07T22:14:00.634Z,5.00
2022-09-07T22:16:28.992Z,4.82
2022-09-07T22:18:57.559Z,5.25
2022-09-07T22:21:27.303Z,4.70
2022-09-07T22:23:58.421Z,5.20
2022-09-07T22:26:29.437Z,5.10
2022-09-07T22:28:57.470Z,5.20
2022-09-07T22:31:27.412Z,5.32
2022-09-07T22:33:56.825Z,5.00
2022-09-07T22:36:27.977Z,5.28
2022-09-07T22:38:57.802Z,5.07
2022-09-07T22:41:30.032Z,4.85
2022-09-07T22:43:58.167Z,5.32
2022-09-07T22:46:28.087Z,5.15
2022-09-07T22:48:57.108Z,4.93
2022-09-07T22:51:26.304Z,5.07
2022-09-07T22:53:54.620Z,5.22
2022-09-07T22:56:25.003Z,5.10
2022-09-07T22:58:56.169Z,5.22
2022-09-07T23:01:24.818Z,5.20
2022-09-07T23:03:53.446Z,5.20
2022-09-07T23:06:23.503Z,4.60
2022-09-07T23:08:52.358Z,4.97
2022-09-07T23:11:21.010Z,5.10
2022-09-07T23:13:51.809Z,4.80
2022-09-07T23:16:21.802Z,5.18
2022-09-07T23:18:50.534Z,4.72
2022-09-07T23:21:19.229Z,4.85
2022-09-07T23:23:51.309Z,4.72
2022-09-07T23:26:19.343Z,4.40
2022-09-07T23:28:51.346Z,4.97
2022-09-07T23:31:20.840Z,4.70
2022-09-07T23:33:48.882Z,5.13
2022-09-07T23:36:17.598Z,5.00
2022-09-07T23:38:45.666Z,5.28
2022-09-07T23:41:14.618Z,5.05
2022-09-07T23:43:42.650Z,5.25
2022-09-07T23:46:11.605Z,5.25
2022-09-07T23:48:41.055Z,5.50
2022-09-07T23:51:08.976Z,5.18
2022-09-07T23:53:36.894Z,4.97
2022-09-07T23:56:05.322Z,5.13
2022-09-07T23:58:33.357Z,5.10
